Time;durP1;ratioP1;P1;durP2;ratioP2;P2;SDS_P1;SDS_P2;PMS_P1;PMS_P2;Temp;Humidity;BMP_temperature;BMP_pressure;BME280_temperature;BME280_humidity;BME280_pressure;Samples;Min_cycle;Max_cycle;Signal;HPM_P1;HPM_P2
2022/02/13 00:01:44;;;;;;;21.33;8.38;;;;;;;;;;4842824;29;20030;-88
2022/02/13 00:04:10;;;;;;;23.50;9.80;;;;;;;;;;4842871;29;20112;-88
2022/02/13 00:06:36;;;;;;;24.63;9.20;;;;;;;;;;4843944;29;20152;-87
2022/02/13 00:09:03;;;;;;;25.10;10.05;;;;;;;;;;4842872;29;20128;-88
2022/02/13 00:11:29;;;;;;;25.60;9.40;;;;;;;;;;4841765;29;20050;-89
2022/02/13 00:13:55;;;;;;;22.55;8.80;;;;;;;;;;4842438;29;20373;-88
2022/02/13 00:16:21;;;;;;;27.10;10.63;;;;;;;;;;4842568;29;20068;-88
2022/02/13 00:18:47;;;;;;;21.88;10.18;;;;;;;;;;4843638;29;20484;-88
2022/02/13 00:21:16;;;;;;;24.17;10.18;;;;;;;;;;4842946;29;20085;-87
2022/02/13 00:23:42;;;;;;;21.48;9.40;;;;;;;;;;5630295;24;20024;-85
2022/02/13 00:26:14;;;;;;;25.40;9.77;;;;;;;;;;4824531;29;20132;-88
2022/02/13 00:28:41;;;;;;;28.48;10.05;;;;;;;;;;5203787;24;20054;-88
2022/02/13 00:31:07;;;;;;;17.73;8.63;;;;;;;;;;4824552;29;20480;-88
2022/02/13 00:33:34;;;;;;;28.45;9.88;;;;;;;;;;4824313;29;20071;-88
2022/02/13 00:36:01;;;;;;;28.42;11.15;;;;;;;;;;4824310;29;20068;-88
2022/02/13 00:38:27;;;;;;;20.83;9.30;;;;;;;;;;4825621;29;20042;-87
2022/02/13 00:40:54;;;;;;;28.15;10.68;;;;;;;;;;4824445;29;20030;-88
2022/02/13 00:43:20;;;;;;;24.02;10.70;;;;;;;;;;4824400;29;20583;-88
2022/02/13 00:45:46;;;;;;;23.83;9.68;;;;;;;;;;4837937;29;20021;-87
2022/02/13 00:48:12;;;;;;;24.48;10.10;;;;;;;;;;4837048;29;20049;-89
2022/02/13 00:50:39;;;;;;;23.75;9.48;;;;;;;;;;4827465;29;20033;-88
2022/02/13 00:53:06;;;;;;;20.83;8.50;;;;;;;;;;4824239;29;20093;-88
2022/02/13 00:55:33;;;;;;;22.10;8.60;;;;;;;;;;4823925;29;20030;-89
2022/02/13 00:57:59;;;;;;;21.38;8.95;;;;;;;;;;4823851;29;20030;-87
2022/02/13 01:00:25;;;;;;;20.73;7.40;;;;;;;;;;4825010;29;20473;-88
2022/02/13 01:02:52;;;;;;;20.13;8.68;;;;;;;;;;4825022;29;20031;-88
2022/02/13 01:05:18;;;;;;;16.73;8.02;;;;;;;;;;4823904;29;20034;-88
2022/02/13 01:07:44;;;;;;;17.65;7.13;;;;;;;;;;4823886;29;20058;-88
2022/02/13 01:10:10;;;;;;;14.23;7.15;;;;;;;;;;4823876;29;20086;-88
2022/02/13 01:12:37;;;;;;;23.77;8.07;;;;;;;;;;4823829;29;20031;-88
2022/02/13 01:15:03;;;;;;;17.40;7.65;;;;;;;;;;4823607;29;20476;-88
2022/02/13 01:17:29;;;;;;;23.95;7.90;;;;;;;;;;4823878;29;20125;-89
2022/02/13 01:19:56;;;;;;;19.50;8.45;;;;;;;;;;4823610;29;20039;-88
2022/02/13 01:22:22;;;;;;;19.02;7.85;;;;;;;;;;4824678;29;20030;-88
2022/02/13 01:24:48;;;;;;;19.48;7.38;;;;;;;;;;4827255;29;20125;-88
2022/02/13 01:27:14;;;;;;;19.35;8.25;;;;;;;;;;4827181;29;20031;-88
2022/02/13 01:29:42;;;;;;;26.33;8.02;;;;;;;;;;4826630;29;20058;-88
2022/02/13 01:32:08;;;;;;;18.80;7.43;;;;;;;;;;4828138;29;20498;-87
2022/02/13 01:34:34;;;;;;;19.60;7.78;;;;;;;;;;4827196;29;20058;-88
2022/02/13 01:37:00;;;;;;;29.88;8.00;;;;;;;;;;4827061;29;20046;-88
2022/02/13 01:39:27;;;;;;;20.50;9.07;;;;;;;;;;4826937;29;20087;-88
2022/02/13 01:41:53;;;;;;;20.10;8.25;;;;;;;;;;4827108;29;20031;-88
2022/02/13 01:44:29;;;;;;;22.20;8.77;;;;;;;;;;4826886;29;20099;-88
2022/02/13 01:46:56;;;;;;;18.83;7.70;;;;;;;;;;4827096;29;20038;-88
2022/02/13 01:49:22;;;;;;;21.35;7.95;;;;;;;;;;4826824;29;20450;-88
2022/02/13 01:51:49;;;;;;;19.73;8.63;;;;;;;;;;4826681;29;20026;-87
2022/02/13 01:54:15;;;;;;;26.80;9.23;;;;;;;;;;4826632;29;20038;-87
2022/02/13 01:56:41;;;;;;;22.30;8.27;;;;;;;;;;4826647;29;20055;-88
2022/02/13 01:59:07;;;;;;;20.75;9.10;;;;;;;;;;4826558;29;20098;-88
2022/02/13 02:01:33;;;;;;;17.52;8.02;;;;;;;;;;4826925;29;20026;-88
2022/02/13 02:03:59;;;;;;;23.95;9.65;;;;;;;;;;4827691;29;20032;-90
2022/02/13 02:06:26;;;;;;;22.80;9.82;;;;;;;;;;4827214;29;20026;-87
2022/02/13 02:08:52;;;;;;;23.55;9.90;;;;;;;;;;4827803;29;20113;-88
2022/02/13 02:11:18;;;;;;;25.35;9.77;;;;;;;;;;4824223;29;20048;-88
2022/02/13 02:13:44;;;;;;;21.92;9.95;;;;;;;;;;4826561;29;20035;-88
2022/02/13 02:16:11;;;;;;;22.95;9.55;;;;;;;;;;4826792;29;20027;-88
2022/02/13 02:18:37;;;;;;;22.25;10.27;;;;;;;;;;4826132;29;20415;-87
2022/02/13 02:21:04;;;;;;;31.13;11.15;;;;;;;;;;4827406;29;20037;-89
2022/02/13 02:23:33;;;;;;;27.42;10.50;;;;;;;;;;4826253;29;20038;-87
2022/02/13 02:25:59;;;;;;;28.55;11.05;;;;;;;;;;4826188;29;20480;-88
2022/02/13 02:28:26;;;;;;;29.83;10.70;;;;;;;;;;4826329;29;20054;-88
2022/02/13 02:30:52;;;;;;;27.63;10.70;;;;;;;;;;4831490;29;20022;-87
2022/02/13 02:33:19;;;;;;;30.02;10.65;;;;;;;;;;4845423;29;20031;-88
2022/02/13 02:35:49;;;;;;;27.50;11.60;;;;;;;;;;4835611;29;20092;-88
2022/02/13 02:38:15;;;;;;;27.40;10.63;;;;;;;;;;4830066;29;20062;-88
2022/02/13 02:40:42;;;;;;;23.08;10.15;;;;;;;;;;4826346;29;20113;-88
2022/02/13 02:43:08;;;;;;;23.23;10.00;;;;;;;;;;4825953;29;20045;-88
2022/02/13 02:45:34;;;;;;;30.00;10.52;;;;;;;;;;4826096;29;20039;-87
2022/02/13 02:48:01;;;;;;;27.42;10.98;;;;;;;;;;4826053;29;20026;-87
2022/02/13 02:50:27;;;;;;;37.83;12.10;;;;;;;;;;4827423;29;20065;-88
2022/02/13 02:52:53;;;;;;;29.67;12.73;;;;;;;;;;4825819;29;20476;-87
2022/02/13 02:55:19;;;;;;;23.73;10.43;;;;;;;;;;4825727;29;20117;-88
2022/02/13 02:57:45;;;;;;;20.17;9.65;;;;;;;;;;4827354;29;20038;-88
2022/02/13 03:00:12;;;;;;;19.65;8.32;;;;;;;;;;4825633;29;20039;-87
2022/02/13 03:02:38;;;;;;;23.67;9.55;;;;;;;;;;4825759;29;20038;-87
2022/02/13 03:05:04;;;;;;;18.50;8.18;;;;;;;;;;4825978;29;20041;-88
2022/02/13 03:07:31;;;;;;;19.92;7.93;;;;;;;;;;4825543;29;20030;-88
2022/02/13 03:09:57;;;;;;;16.38;7.70;;;;;;;;;;4825523;29;20122;-87
2022/02/13 03:12:23;;;;;;;17.52;8.40;;;;;;;;;;4825786;29;20030;-87
2022/02/13 03:14:49;;;;;;;21.42;8.40;;;;;;;;;;4825330;29;20464;-89
2022/02/13 03:17:15;;;;;;;22.83;8.05;;;;;;;;;;4825511;29;20420;-89
2022/02/13 03:19:42;;;;;;;23.00;8.73;;;;;;;;;;4825409;29;20035;-87
2022/02/13 03:22:08;;;;;;;20.55;8.65;;;;;;;;;;4825375;29;20114;-87
2022/02/13 03:24:34;;;;;;;17.27;8.10;;;;;;;;;;4825406;29;20037;-86
2022/02/13 03:27:01;;;;;;;24.70;8.70;;;;;;;;;;4825404;29;20028;-87
2022/02/13 03:29:27;;;;;;;20.92;8.77;;;;;;;;;;4826158;29;20160;-87
2022/02/13 03:31:54;;;;;;;22.40;9.27;;;;;;;;;;4825126;29;20030;-87
2022/02/13 03:34:20;;;;;;;22.33;8.88;;;;;;;;;;4825067;29;20031;-87
2022/02/13 03:36:47;;;;;;;23.27;8.98;;;;;;;;;;4825477;29;20062;-87
2022/02/13 03:39:13;;;;;;;21.23;9.30;;;;;;;;;;4825162;29;20088;-87
2022/02/13 03:41:39;;;;;;;25.77;9.40;;;;;;;;;;4825177;29;20404;-87
2022/02/13 03:44:06;;;;;;;21.15;9.15;;;;;;;;;;4824982;29;20083;-87
2022/02/13 03:46:32;;;;;;;26.48;9.38;;;;;;;;;;4824763;29;20041;-88
2022/02/13 03:48:58;;;;;;;24.92;9.00;;;;;;;;;;4825004;29;20121;-87
2022/02/13 03:51:25;;;;;;;22.80;8.52;;;;;;;;;;4824864;29;20034;-88
2022/02/13 03:53:51;;;;;;;21.50;9.38;;;;;;;;;;4824838;29;20397;-88
2022/02/13 03:56:17;;;;;;;27.55;10.02;;;;;;;;;;4824776;29;20037;-87
2022/02/13 03:58:43;;;;;;;23.40;9.73;;;;;;;;;;4825894;29;20042;-87
2022/02/13 04:01:09;;;;;;;19.77;9.38;;;;;;;;;;4825929;29;20037;-87
2022/02/13 04:03:36;;;;;;;27.65;9.73;;;;;;;;;;4824743;29;20041;-87
2022/02/13 04:06:03;;;;;;;26.67;10.18;;;;;;;;;;4826644;29;20030;-85
2022/02/13 04:08:29;;;;;;;24.42;9.52;;;;;;;;;;4826158;29;20058;-87
2022/02/13 04:10:56;;;;;;;20.15;9.68;;;;;;;;;;4824744;29;20034;-87
2022/02/13 04:13:22;;;;;;;25.05;10.15;;;;;;;;;;4826032;29;20026;-87
2022/02/13 04:15:48;;;;;;;19.90;8.38;;;;;;;;;;4826794;29;20042;-87
2022/02/13 04:18:15;;;;;;;19.30;8.80;;;;;;;;;;4846720;29;20026;-86
2022/02/13 04:20:42;;;;;;;23.70;8.98;;;;;;;;;;4829342;29;20126;-87
2022/02/13 04:23:09;;;;;;;19.15;8.95;;;;;;;;;;4824304;29;20038;-87
2022/02/13 04:25:36;;;;;;;20.63;8.85;;;;;;;;;;4824462;29;20034;-87
2022/02/13 04:28:02;;;;;;;26.17;9.75;;;;;;;;;;4824406;29;20026;-88
2022/02/13 04:30:28;;;;;;;22.67;9.60;;;;;;;;;;4824433;29;20080;-88
2022/02/13 04:32:56;;;;;;;27.95;11.43;;;;;;;;;;4825528;29;20088;-88
2022/02/13 04:35:23;;;;;;;29.55;9.60;;;;;;;;;;4824535;29;20030;-88
2022/02/13 04:37:53;;;;;;;24.75;9.85;;;;;;;;;;4824295;29;20034;-88
2022/02/13 04:40:19;;;;;;;30.00;9.88;;;;;;;;;;4824226;29;20042;-88
2022/02/13 04:42:46;;;;;;;24.05;9.38;;;;;;;;;;4825352;29;20026;-87
2022/02/13 04:45:12;;;;;;;23.60;8.85;;;;;;;;;;4824315;29;20073;-87
2022/02/13 04:47:38;;;;;;;24.55;9.15;;;;;;;;;;4825407;29;20030;-89
2022/02/13 04:50:05;;;;;;;24.40;9.48;;;;;;;;;;4824227;29;20034;-88
2022/02/13 04:52:31;;;;;;;28.08;10.57;;;;;;;;;;4824105;29;20035;-88
2022/02/13 04:54:57;;;;;;;28.45;9.30;;;;;;;;;;4824373;29;20030;-88
2022/02/13 04:57:23;;;;;;;25.17;9.05;;;;;;;;;;4826757;29;20030;-88
2022/02/13 04:59:49;;;;;;;21.02;9.50;;;;;;;;;;4829958;29;20049;-87
2022/02/13 05:02:16;;;;;;;19.38;8.18;;;;;;;;;;4830165;29;20034;-88
2022/02/13 05:04:42;;;;;;;27.10;9.55;;;;;;;;;;4829995;29;20057;-88
2022/02/13 05:07:08;;;;;;;25.08;9.90;;;;;;;;;;4830076;29;20038;-88
2022/02/13 05:09:34;;;;;;;31.90;10.98;;;;;;;;;;4831887;29;20043;-88
2022/02/13 05:12:00;;;;;;;23.27;9.63;;;;;;;;;;4829962;29;20056;-88
2022/02/13 05:14:26;;;;;;;25.60;9.65;;;;;;;;;;4831194;29;20087;-87
2022/02/13 05:16:53;;;;;;;22.63;8.88;;;;;;;;;;4829886;29;20447;-87
2022/02/13 05:19:19;;;;;;;25.50;8.68;;;;;;;;;;4830040;29;20042;-87
2022/02/13 05:21:45;;;;;;;29.17;10.07;;;;;;;;;;4829908;29;20027;-88
2022/02/13 05:24:12;;;;;;;26.30;11.45;;;;;;;;;;4829684;29;20043;-87
2022/02/13 05:26:38;;;;;;;28.13;10.23;;;;;;;;;;4829819;29;20034;-89
2022/02/13 05:29:04;;;;;;;23.25;9.52;;;;;;;;;;4830603;29;20625;-87
2022/02/13 05:31:30;;;;;;;26.48;10.10;;;;;;;;;;4829449;29;20039;-88
2022/02/13 05:34:03;;;;;;;25.63;9.88;;;;;;;;;;4829280;29;20417;-85
2022/02/13 05:36:29;;;;;;;25.88;10.13;;;;;;;;;;4830576;29;20049;-86
2022/02/13 05:38:55;;;;;;;19.60;8.95;;;;;;;;;;4830618;29;20095;-87
2022/02/13 05:41:21;;;;;;;24.13;9.55;;;;;;;;;;4830402;29;20032;-86
2022/02/13 05:43:47;;;;;;;22.95;9.48;;;;;;;;;;4829275;29;20034;-88
2022/02/13 05:46:13;;;;;;;24.00;9.32;;;;;;;;;;4829432;29;20041;-87
2022/02/13 05:48:40;;;;;;;23.70;8.88;;;;;;;;;;4830507;29;20034;-85
2022/02/13 05:51:07;;;;;;;19.42;7.85;;;;;;;;;;4829341;29;20046;-86
2022/02/13 05:53:33;;;;;;;19.13;8.15;;;;;;;;;;4830549;29;20034;-86
2022/02/13 05:55:59;;;;;;;30.58;9.68;;;;;;;;;;4829372;29;20039;-86
2022/02/13 05:58:25;;;;;;;18.73;8.35;;;;;;;;;;4829240;29;20453;-86
2022/02/13 06:00:51;;;;;;;20.00;8.45;;;;;;;;;;4829663;29;20038;-86
2022/02/13 06:03:17;;;;;;;22.42;9.70;;;;;;;;;;4840672;29;20030;-85
2022/02/13 06:05:43;;;;;;;25.00;9.95;;;;;;;;;;4840421;29;20034;-87
2022/02/13 06:08:10;;;;;;;26.00;10.20;;;;;;;;;;4829797;29;20038;-88
2022/02/13 06:10:36;;;;;;;30.85;12.10;;;;;;;;;;4827589;29;20063;-87
2022/02/13 06:13:03;;;;;;;34.30;12.15;;;;;;;;;;4826209;29;20030;-88
2022/02/13 06:15:29;;;;;;;31.02;11.50;;;;;;;;;;4825774;29;20045;-87
2022/02/13 06:17:55;;;;;;;27.83;11.95;;;;;;;;;;4826132;29;20054;-87
2022/02/13 06:20:21;;;;;;;29.63;11.80;;;;;;;;;;4826873;29;20038;-87
2022/02/13 06:22:47;;;;;;;27.83;11.48;;;;;;;;;;4826929;29;20066;-87
2022/02/13 06:25:14;;;;;;;24.58;9.75;;;;;;;;;;4826199;29;20035;-87
2022/02/13 06:27:40;;;;;;;20.67;8.95;;;;;;;;;;4826195;29;20030;-87
2022/02/13 06:30:06;;;;;;;29.30;10.68;;;;;;;;;;4828048;29;20061;-86
2022/02/13 06:32:32;;;;;;;25.35;9.85;;;;;;;;;;4826074;29;20413;-87
2022/02/13 06:34:58;;;;;;;28.42;11.15;;;;;;;;;;4825940;29;20026;-87
2022/02/13 06:37:25;;;;;;;38.95;15.13;;;;;;;;;;4825990;29;20396;-91
2022/02/13 06:39:51;;;;;;;21.60;9.95;;;;;;;;;;4828479;29;20076;-89
2022/02/13 06:42:17;;;;;;;28.42;11.45;;;;;;;;;;4844662;29;20034;-89
2022/02/13 06:44:43;;;;;;;31.88;13.07;;;;;;;;;;4844310;29;20117;-91
2022/02/13 06:47:10;;;;;;;30.30;13.35;;;;;;;;;;4844376;29;20042;-88
2022/02/13 06:49:36;;;;;;;32.42;13.57;;;;;;;;;;4843994;29;20030;-91
2022/02/13 06:52:02;;;;;;;34.72;14.63;;;;;;;;;;4844165;29;20032;-90
2022/02/13 06:54:31;;;;;;;26.88;12.38;;;;;;;;;;4844342;29;20559;-89
2022/02/13 06:56:57;;;;;;;24.40;10.90;;;;;;;;;;4845509;29;20026;-91
2022/02/13 06:59:23;;;;;;;24.05;10.98;;;;;;;;;;4845297;29;20044;-92
2022/02/13 07:01:50;;;;;;;25.65;11.50;;;;;;;;;;4844207;29;20388;-92
2022/02/13 07:04:16;;;;;;;26.70;12.48;;;;;;;;;;4844539;29;20487;-91
2022/02/13 07:06:42;;;;;;;26.50;12.57;;;;;;;;;;4844279;29;20021;-91
2022/02/13 07:09:09;;;;;;;20.48;11.02;;;;;;;;;;4844048;29;20130;-89
2022/02/13 07:11:36;;;;;;;22.13;10.40;;;;;;;;;;4843856;29;20050;-91
2022/02/13 07:14:03;;;;;;;20.83;9.95;;;;;;;;;;4844136;29;20037;-88
2022/02/13 07:16:30;;;;;;;22.00;9.20;;;;;;;;;;4834061;29;20030;-95
2022/02/13 07:18:58;;;;;;;21.58;10.00;;;;;;;;;;4813422;29;20050;-90
2022/02/13 07:21:26;;;;;;;17.30;8.43;;;;;;;;;;4828287;29;20464;-88
2022/02/13 07:23:53;;;;;;;21.63;10.15;;;;;;;;;;4828533;29;20030;-89
2022/02/13 07:26:20;;;;;;;18.92;9.02;;;;;;;;;;4827065;29;20054;-93
2022/02/13 07:28:59;;;;;;;15.38;7.82;;;;;;;;;;4827657;29;20050;-96
2022/02/13 07:31:25;;;;;;;14.20;6.72;;;;;;;;;;4826530;29;20444;-88
2022/02/13 07:33:51;;;;;;;13.90;7.25;;;;;;;;;;4828560;29;20434;-95
2022/02/13 07:36:17;;;;;;;15.80;6.93;;;;;;;;;;4827905;29;20053;-91
2022/02/13 07:38:44;;;;;;;10.50;5.45;;;;;;;;;;4826330;29;20030;-91
2022/02/13 07:41:10;;;;;;;11.90;3.95;;;;;;;;;;4825871;29;20034;-94
2022/02/13 07:43:36;;;;;;;10.35;2.97;;;;;;;;;;4826268;29;20041;-94
2022/02/13 07:46:02;;;;;;;5.40;3.08;;;;;;;;;;4828031;29;20041;-93
2022/02/13 07:48:29;;;;;;;6.15;2.88;;;;;;;;;;4827617;29;20026;-91
2022/02/13 07:50:55;;;;;;;9.63;3.22;;;;;;;;;;4846357;29;20022;-92
2022/02/13 07:53:21;;;;;;;10.27;3.03;;;;;;;;;;4848195;29;20014;-94
2022/02/13 07:55:47;;;;;;;10.75;3.85;;;;;;;;;;4827343;29;20095;-83
2022/02/13 07:58:13;;;;;;;8.52;3.28;;;;;;;;;;4823992;29;20049;-82
2022/02/13 08:00:39;;;;;;;9.55;3.40;;;;;;;;;;4823967;29;20480;-83
2022/02/13 08:03:06;;;;;;;11.57;3.85;;;;;;;;;;4825252;29;20031;-84
2022/02/13 08:05:32;;;;;;;9.93;4.15;;;;;;;;;;4823895;29;20026;-83
2022/02/13 08:07:58;;;;;;;11.93;2.90;;;;;;;;;;4823777;29;20034;-82
2022/02/13 08:10:25;;;;;;;9.60;3.88;;;;;;;;;;4825052;29;20041;-83
2022/02/13 08:12:51;;;;;;;5.93;2.95;;;;;;;;;;4823855;29;20065;-83
2022/02/13 08:15:17;;;;;;;10.35;3.70;;;;;;;;;;4823864;29;20070;-82
2022/02/13 08:17:43;;;;;;;12.00;3.03;;;;;;;;;;4825269;29;20026;-82
2022/02/13 08:20:13;;;;;;;7.93;2.80;;;;;;;;;;4824742;29;20117;-85
2022/02/13 08:22:39;;;;;;;8.13;3.17;;;;;;;;;;4823751;29;20057;-82
2022/02/13 08:25:06;;;;;;;9.02;3.17;;;;;;;;;;4823807;29;20056;-84
2022/02/13 08:27:32;;;;;;;5.15;2.63;;;;;;;;;;4823698;29;20082;-85
2022/02/13 08:29:59;;;;;;;8.90;3.47;;;;;;;;;;4825336;29;20060;-84
2022/02/13 08:32:26;;;;;;;10.75;3.35;;;;;;;;;;4824073;29;20095;-83
2022/02/13 08:34:56;;;;;;;8.05;2.97;;;;;;;;;;4823646;29;20040;-83
2022/02/13 08:37:22;;;;;;;6.65;2.63;;;;;;;;;;4823474;29;20064;-82
2022/02/13 08:39:48;;;;;;;7.88;3.47;;;;;;;;;;4825179;29;20189;-81
2022/02/13 08:42:14;;;;;;;8.10;3.83;;;;;;;;;;4823397;29;20144;-81
2022/02/13 08:44:40;;;;;;;10.93;3.55;;;;;;;;;;4823452;29;20488;-82
2022/02/13 08:47:06;;;;;;;6.32;3.28;;;;;;;;;;4823360;29;20077;-84
2022/02/13 08:49:32;;;;;;;10.05;3.25;;;;;;;;;;4823596;29;20428;-82
2022/02/13 08:51:59;;;;;;;8.13;3.28;;;;;;;;;;4824580;29;20033;-82
2022/02/13 08:54:25;;;;;;;9.13;4.38;;;;;;;;;;4823232;29;20034;-81
2022/02/13 08:56:53;;;;;;;8.65;3.92;;;;;;;;;;4823314;29;20026;-84
2022/02/13 08:59:19;;;;;;;8.30;3.20;;;;;;;;;;4823146;29;20507;-85
2022/02/13 09:01:45;;;;;;;5.82;3.58;;;;;;;;;;4823077;29;20026;-82
2022/02/13 09:04:12;;;;;;;8.00;3.08;;;;;;;;;;4823236;29;20038;-83
2022/02/13 09:06:38;;;;;;;6.13;2.58;;;;;;;;;;4825074;29;20045;-83
2022/02/13 09:09:06;;;;;;;5.13;2.47;;;;;;;;;;4823162;29;20038;-84
2022/02/13 09:11:32;;;;;;;6.32;2.80;;;;;;;;;;4823090;29;20027;-84
2022/02/13 09:14:00;;;;;;;9.32;2.10;;;;;;;;;;4823249;29;20128;-83
2022/02/13 09:16:27;;;;;;;7.32;3.40;;;;;;;;;;4824193;29;20516;-83
2022/02/13 09:18:53;;;;;;;7.15;2.75;;;;;;;;;;4821821;29;20046;-81
2022/02/13 09:21:20;;;;;;;5.82;2.95;;;;;;;;;;4822706;29;20063;-81
2022/02/13 09:23:46;;;;;;;6.82;2.38;;;;;;;;;;4823775;29;20038;-81
2022/02/13 09:26:12;;;;;;;6.28;2.63;;;;;;;;;;4824269;29;20023;-82
2022/02/13 09:28:38;;;;;;;7.72;3.15;;;;;;;;;;4824430;29;20061;-79
2022/02/13 09:31:05;;;;;;;6.03;2.90;;;;;;;;;;4824340;29;20034;-82
2022/02/13 09:33:31;;;;;;;7.22;3.40;;;;;;;;;;4824776;29;20097;-82
2022/02/13 09:35:58;;;;;;;7.78;2.83;;;;;;;;;;4824105;29;20132;-82
2022/02/13 09:38:24;;;;;;;6.82;2.70;;;;;;;;;;4824028;29;20034;-82
2022/02/13 09:40:50;;;;;;;10.32;3.05;;;;;;;;;;4823203;29;20088;-81
2022/02/13 09:43:17;;;;;;;4.95;2.55;;;;;;;;;;4824801;29;20034;-83
2022/02/13 09:45:45;;;;;;;7.15;3.47;;;;;;;;;;4827353;29;20034;-80
2022/02/13 09:48:12;;;;;;;10.23;3.53;;;;;;;;;;4827751;29;20395;-81
2022/02/13 09:50:39;;;;;;;6.57;2.70;;;;;;;;;;4827187;29;20030;-80
2022/02/13 09:53:05;;;;;;;7.45;2.97;;;;;;;;;;4827191;29;20091;-82
2022/02/13 09:55:32;;;;;;;8.15;3.17;;;;;;;;;;4826019;29;20076;-80
2022/02/13 09:58:04;;;;;;;8.77;2.80;;;;;;;;;;4825909;29;20076;-81
2022/02/13 10:00:49;;;;;;;9.40;2.90;;;;;;;;;;4827512;29;20126;-81
2022/02/13 10:03:28;;;;;;;7.03;3.20;;;;;;;;;;4825780;29;20148;-82
2022/02/13 10:06:02;;;;;;;6.13;2.72;;;;;;;;;;4825684;29;20518;-84
2022/02/13 10:08:36;;;;;;;11.25;3.53;;;;;;;;;;4827066;29;20031;-83
2022/02/13 10:11:13;;;;;;;5.72;2.10;;;;;;;;;;4825631;29;20026;-82
2022/02/13 10:13:50;;;;;;;6.57;2.28;;;;;;;;;;4824945;29;20038;-84
2022/02/13 10:16:26;;;;;;;7.90;2.90;;;;;;;;;;4825553;29;20099;-82
2022/02/13 10:19:01;;;;;;;5.22;2.53;;;;;;;;;;4825394;29;20048;-81
2022/02/13 10:21:30;;;;;;;6.32;2.35;;;;;;;;;;4825487;29;20472;-82
2022/02/13 10:24:17;;;;;;;4.93;1.92;;;;;;;;;;4825439;29;20037;-82
2022/02/13 10:26:44;;;;;;;5.00;2.40;;;;;;;;;;4798128;29;20039;-83
2022/02/13 10:29:11;;;;;;;2.90;1.13;;;;;;;;;;4825172;29;20054;-83
2022/02/13 10:31:37;;;;;;;4.78;2.22;;;;;;;;;;4826525;29;20026;-83
2022/02/13 10:34:04;;;;;;;5.18;2.67;;;;;;;;;;4827072;29;20094;-82
2022/02/13 10:36:30;;;;;;;6.85;2.70;;;;;;;;;;4825298;29;20087;-83
2022/02/13 10:38:56;;;;;;;2.30;1.23;;;;;;;;;;4826397;29;20038;-83
2022/02/13 10:41:24;;;;;;;6.43;1.52;;;;;;;;;;4825168;29;20450;-83
2022/02/13 10:43:51;;;;;;;7.80;3.60;;;;;;;;;;4825109;29;20037;-83
2022/02/13 10:46:18;;;;;;;2.67;1.20;;;;;;;;;;4825091;29;20030;-83
2022/02/13 10:48:45;;;;;;;5.50;2.42;;;;;;;;;;4826368;29;20027;-83
2022/02/13 10:51:12;;;;;;;5.97;2.55;;;;;;;;;;4824918;29;20033;-83
2022/02/13 10:53:38;;;;;;;8.55;3.20;;;;;;;;;;4825000;29;20412;-83
2022/02/13 10:56:05;;;;;;;9.40;2.85;;;;;;;;;;4825946;29;20026;-83
2022/02/13 10:58:31;;;;;;;8.00;3.58;;;;;;;;;;4824864;29;20034;-83
2022/02/13 11:00:58;;;;;;;7.90;2.83;;;;;;;;;;4826181;29;20175;-83
2022/02/13 11:03:25;;;;;;;5.18;2.70;;;;;;;;;;4826856;29;20038;-82
2022/02/13 11:05:54;;;;;;;5.65;2.95;;;;;;;;;;4824844;29;20030;-83
2022/02/13 11:08:20;;;;;;;5.88;2.20;;;;;;;;;;4826518;29;20388;-82
2022/02/13 11:10:48;;;;;;;6.70;2.85;;;;;;;;;;4825254;29;20030;-83
2022/02/13 11:13:14;;;;;;;2.05;1.20;;;;;;;;;;4824808;29;20030;-84
2022/02/13 11:15:42;;;;;;;5.45;1.83;;;;;;;;;;4824725;29;20062;-83
2022/02/13 11:18:15;;;;;;;5.78;1.65;;;;;;;;;;4824721;29;20034;-83
2022/02/13 11:20:42;;;;;;;1.58;0.75;;;;;;;;;;4824580;29;20111;-83
2022/02/13 11:23:21;;;;;;;3.88;1.67;;;;;;;;;;4826379;29;20424;-83
2022/02/13 11:26:00;;;;;;;5.38;2.70;;;;;;;;;;4826634;29;20345;-83
2022/02/13 11:28:46;;;;;;;6.72;3.13;;;;;;;;;;4824523;29;20042;-83
2022/02/13 11:31:31;;;;;;;5.93;2.20;;;;;;;;;;4824483;29;20034;-83
2022/02/13 11:33:58;;;;;;;6.15;2.40;;;;;;;;;;4824603;29;20460;-83
2022/02/13 11:36:44;;;;;;;7.00;3.13;;;;;;;;;;4825795;29;20027;-84
2022/02/13 11:39:11;;;;;;;6.97;2.78;;;;;;;;;;4826112;29;20040;-83
2022/02/13 11:41:46;;;;;;;8.20;3.83;;;;;;;;;;4824367;29;20125;-84
2022/02/13 11:44:32;;;;;;;7.82;2.88;;;;;;;;;;4824263;29;20034;-84
2022/02/13 11:46:58;;;;;;;6.40;2.60;;;;;;;;;;4824239;29;20510;-83
2022/02/13 11:49:25;;;;;;;7.97;3.10;;;;;;;;;;4824156;29;20438;-83
2022/02/13 11:51:53;;;;;;;6.30;3.35;;;;;;;;;;4824220;29;20126;-83
2022/02/13 11:54:38;;;;;;;6.32;2.75;;;;;;;;;;4825884;29;20426;-83
2022/02/13 11:57:05;;;;;;;6.95;3.50;;;;;;;;;;4824151;29;20060;-83
2022/02/13 11:59:47;;;;;;;7.22;3.13;;;;;;;;;;4823974;29;20068;-84
2022/02/13 12:02:17;;;;;;;6.68;2.92;;;;;;;;;;4823981;29;20536;-83
2022/02/13 12:05:02;;;;;;;8.35;2.70;;;;;;;;;;4825352;29;20488;-84
2022/02/13 12:07:33;;;;;;;5.75;3.00;;;;;;;;;;4823909;29;20038;-84
2022/02/13 12:10:00;;;;;;;6.05;2.88;;;;;;;;;;4823966;29;20488;-84
2022/02/13 12:12:28;;;;;;;8.57;3.25;;;;;;;;;;4823847;29;20042;-83
2022/02/13 12:14:55;;;;;;;7.90;2.33;;;;;;;;;;4823827;29;20032;-83
2022/02/13 12:17:27;;;;;;;6.68;3.08;;;;;;;;;;4825030;29;20105;-83
2022/02/13 12:20:05;;;;;;;7.15;3.22;;;;;;;;;;4823643;29;20043;-84
2022/02/13 12:22:31;;;;;;;6.35;3.13;;;;;;;;;;4823665;29;20031;-83
2022/02/13 12:24:58;;;;;;;6.50;2.70;;;;;;;;;;4823706;29;20476;-83
2022/02/13 12:27:25;;;;;;;7.57;3.15;;;;;;;;;;4823685;29;20087;-83
2022/02/13 12:29:53;;;;;;;7.53;2.90;;;;;;;;;;4823348;29;20500;-83
2022/02/13 12:32:19;;;;;;;5.45;2.67;;;;;;;;;;4823593;29;20037;-83
2022/02/13 12:35:01;;;;;;;6.05;2.88;;;;;;;;;;4823592;29;20057;-83
2022/02/13 12:37:43;;;;;;;8.00;3.58;;;;;;;;;;4824826;29;20034;-84
2022/02/13 12:40:11;;;;;;;6.93;2.85;;;;;;;;;;4824672;29;20046;-84
2022/02/13 12:42:39;;;;;;;9.27;3.45;;;;;;;;;;4823470;29;20105;-84
2022/02/13 12:45:08;;;;;;;5.35;2.22;;;;;;;;;;4823510;29;20054;-84
2022/02/13 12:47:36;;;;;;;6.30;2.92;;;;;;;;;;4823466;29;20034;-84
2022/02/13 12:50:03;;;;;;;10.85;3.28;;;;;;;;;;4823496;29;20129;-83
2022/02/13 12:52:31;;;;;;;8.13;3.50;;;;;;;;;;4823684;29;20030;-83
2022/02/13 12:54:58;;;;;;;6.63;3.33;;;;;;;;;;4823448;29;20373;-83
2022/02/13 12:57:26;;;;;;;9.40;3.75;;;;;;;;;;4824519;29;20106;-81
2022/02/13 12:59:53;;;;;;;9.43;4.47;;;;;;;;;;4825473;29;20095;-83
2022/02/13 13:02:26;;;;;;;9.15;3.28;;;;;;;;;;4823267;29;20442;-84
2022/02/13 13:04:53;;;;;;;9.27;3.20;;;;;;;;;;4823316;29;20087;-84
2022/02/13 13:07:26;;;;;;;19.55;5.45;;;;;;;;;;4823282;29;20476;-83
2022/02/13 13:09:52;;;;;;;8.95;3.95;;;;;;;;;;4824290;29;20061;-83
2022/02/13 13:12:19;;;;;;;10.68;4.35;;;;;;;;;;4823205;29;20039;-85
2022/02/13 13:14:58;;;;;;;10.13;3.92;;;;;;;;;;4823198;29;20126;-84
2022/02/13 13:17:25;;;;;;;6.30;3.28;;;;;;;;;;4823152;29;20437;-83
2022/02/13 13:19:51;;;;;;;6.95;3.33;;;;;;;;;;4826205;29;20043;-83
2022/02/13 13:22:19;;;;;;;7.93;3.78;;;;;;;;;;4826579;29;20038;-83
2022/02/13 13:24:45;;;;;;;7.07;2.90;;;;;;;;;;4826549;29;20035;-83
2022/02/13 13:27:24;;;;;;;8.85;3.55;;;;;;;;;;4826550;29;20041;-83
2022/02/13 13:29:50;;;;;;;11.93;3.38;;;;;;;;;;4827487;29;20043;-84
2022/02/13 13:32:23;;;;;;;6.53;3.38;;;;;;;;;;4826389;29;20031;-84
2022/02/13 13:34:54;;;;;;;7.65;3.38;;;;;;;;;;4826424;29;20034;-84
2022/02/13 13:37:23;;;;;;;10.48;4.30;;;;;;;;;;4826394;29;20026;-84
2022/02/13 13:39:59;;;;;;;7.53;3.70;;;;;;;;;;4826249;29;20129;-84
2022/02/13 13:42:28;;;;;;;6.82;2.90;;;;;;;;;;4827507;29;20171;-83
2022/02/13 13:45:02;;;;;;;9.10;3.80;;;;;;;;;;4826216;29;20035;-82
2022/02/13 13:47:28;;;;;;;6.40;3.25;;;;;;;;;;4827826;29;20034;-84
2022/02/13 13:49:54;;;;;;;8.82;3.55;;;;;;;;;;4826070;29;20428;-84
2022/02/13 13:52:20;;;;;;;8.98;3.40;;;;;;;;;;4827776;29;20062;-84
2022/02/13 13:54:46;;;;;;;7.80;3.70;;;;;;;;;;4826095;29;20035;-84
2022/02/13 13:57:13;;;;;;;7.78;3.40;;;;;;;;;;4827255;29;20030;-83
2022/02/13 13:59:39;;;;;;;8.50;3.47;;;;;;;;;;4825855;29;20377;-84
2022/02/13 14:02:35;;;;;;;8.15;2.92;;;;;;;;;;4825939;29;20030;-84
2022/02/13 14:05:01;;;;;;;7.07;3.22;;;;;;;;;;4814482;29;20042;-84
2022/02/13 14:07:28;;;;;;;7.32;3.33;;;;;;;;;;4827149;29;20105;-83
2022/02/13 14:09:54;;;;;;;6.78;3.28;;;;;;;;;;4827167;29;20544;-84
2022/02/13 14:12:20;;;;;;;7.13;3.38;;;;;;;;;;4825807;29;20026;-84
2022/02/13 14:14:46;;;;;;;10.07;3.88;;;;;;;;;;4827399;29;20095;-84
2022/02/13 14:17:13;;;;;;;10.75;3.55;;;;;;;;;;4825716;29;20030;-83
2022/02/13 14:19:39;;;;;;;7.55;3.90;;;;;;;;;;4825578;29;20057;-83
2022/02/13 14:22:06;;;;;;;8.45;3.72;;;;;;;;;;4825691;29;20038;-85
2022/02/13 14:24:32;;;;;;;8.30;3.80;;;;;;;;;;4825617;29;20035;-84
2022/02/13 14:26:58;;;;;;;7.93;3.70;;;;;;;;;;4826772;29;20054;-84
2022/02/13 14:29:26;;;;;;;10.30;3.78;;;;;;;;;;4824552;29;20067;-84
2022/02/13 14:31:52;;;;;;;13.52;5.45;;;;;;;;;;4826779;29;20046;-84
2022/02/13 14:34:20;;;;;;;10.90;4.47;;;;;;;;;;4825387;29;20043;-84
2022/02/13 14:36:47;;;;;;;34.00;14.75;;;;;;;;;;4825309;29;20127;-84